Time;durP1;ratioP1;P1;durP2;ratioP2;P2;SDS_P1;SDS_P2;PMS_P1;PMS_P2;Temp;Humidity;BMP_temperature;BMP_pressure;BME280_temperature;BME280_humidity;BME280_pressure;Samples;Min_cycle;Max_cycle;Signal;HPM_P1;HPM_P2
2023/04/08 00:01:10;;;;;;;11.02;8.55;;;6.30;99.90;;;;;;5075561;28;20058;-63
2023/04/08 00:03:36;;;;;;;12.70;8.60;;;6.20;99.90;;;;;;5076365;28;20375;-62
2023/04/08 00:06:10;;;;;;;11.40;8.95;;;6.20;99.90;;;;;;5076059;28;20059;-63
2023/04/08 00:08:36;;;;;;;11.40;8.90;;;6.20;99.90;;;;;;5075882;28;20048;-62
2023/04/08 00:11:09;;;;;;;10.10;9.05;;;6.20;99.90;;;;;;5075621;28;20126;-63
2023/04/08 00:13:35;;;;;;;12.88;10.20;;;6.20;99.90;;;;;;5077068;28;20063;-63
2023/04/08 00:16:02;;;;;;;10.98;8.85;;;6.10;99.90;;;;;;5075722;28;20052;-64
2023/04/08 00:18:29;;;;;;;12.10;8.45;;;6.10;99.90;;;;;;5058888;28;20535;-63
2023/04/08 00:20:56;;;;;;;12.23;8.65;;;6.00;99.90;;;;;;5058675;28;20091;-63
2023/04/08 00:23:22;;;;;;;12.35;8.95;;;6.00;99.90;;;;;;5109510;28;20173;-63
2023/04/08 00:25:48;;;;;;;12.13;8.93;;;5.90;99.90;;;;;;5075694;28;20048;-63
2023/04/08 00:28:21;;;;;;;12.75;9.27;;;5.90;99.90;;;;;;5075237;28;20562;-63
2023/04/08 00:30:47;;;;;;;11.35;8.73;;;5.90;99.90;;;;;;5074439;28;20048;-63
2023/04/08 00:33:15;;;;;;;11.15;9.13;;;5.90;99.90;;;;;;5075360;28;20139;-64
2023/04/08 00:35:41;;;;;;;11.55;10.00;;;5.80;99.90;;;;;;5074877;28;20044;-63
2023/04/08 00:38:08;;;;;;;10.02;8.98;;;5.70;99.90;;;;;;5075460;28;20048;-63
2023/04/08 00:40:35;;;;;;;12.38;9.68;;;5.70;99.90;;;;;;5074564;28;20070;-63
2023/04/08 00:43:07;;;;;;;12.32;9.77;;;5.70;99.90;;;;;;5075216;28;20048;-63
2023/04/08 00:45:41;;;;;;;12.25;9.45;;;5.60;99.90;;;;;;5075046;28;20088;-62
2023/04/08 00:48:07;;;;;;;13.13;9.20;;;5.60;99.90;;;;;;5074935;28;20059;-63
2023/04/08 00:50:37;;;;;;;10.52;9.13;;;5.60;99.90;;;;;;5074526;28;20044;-62
2023/04/08 00:53:03;;;;;;;12.13;9.48;;;5.50;99.90;;;;;;5074942;28;20553;-64
2023/04/08 00:55:29;;;;;;;11.80;10.07;;;5.50;99.90;;;;;;5075214;28;20399;-62
2023/04/08 00:57:57;;;;;;;13.45;9.38;;;5.50;99.90;;;;;;5074876;28;20048;-63
2023/04/08 01:00:23;;;;;;;12.38;9.02;;;5.40;99.90;;;;;;5074207;28;20079;-63
2023/04/08 01:03:37;;;;;;;10.13;8.20;;;5.30;99.90;;;;;;5074775;28;20044;-63
2023/04/08 01:06:23;;;;;;;11.13;9.65;;;5.40;99.90;;;;;;5074744;28;20047;-64
2023/04/08 01:09:05;;;;;;;11.05;8.63;;;5.30;99.90;;;;;;5074511;28;20349;-63
2023/04/08 01:11:35;;;;;;;10.10;8.68;;;5.40;99.90;;;;;;5074521;28;20040;-63
2023/04/08 01:14:06;;;;;;;10.30;8.38;;;5.20;99.90;;;;;;5058492;28;20051;-63
2023/04/08 01:16:34;;;;;;;12.35;9.10;;;5.20;99.90;;;;;;5057901;28;20486;-63
2023/04/08 01:19:00;;;;;;;10.45;7.38;;;5.20;99.90;;;;;;5074016;28;20383;-62
2023/04/08 01:21:27;;;;;;;11.38;8.75;;;5.10;99.90;;;;;;5092010;28;20588;-64
2023/04/08 01:24:15;;;;;;;10.85;8.25;;;5.10;99.90;;;;;;5092399;28;20083;-64
2023/04/08 01:26:42;;;;;;;11.20;7.88;;;5.10;99.90;;;;;;5074682;28;20349;-64
2023/04/08 01:29:11;;;;;;;9.40;7.65;;;5.00;99.90;;;;;;5080552;28;20091;-62
2023/04/08 01:31:39;;;;;;;12.35;8.98;;;5.00;99.90;;;;;;5054047;28;20041;-64
2023/04/08 01:34:07;;;;;;;11.02;8.50;;;5.00;99.90;;;;;;5054739;28;20145;-64
2023/04/08 01:36:35;;;;;;;9.82;8.18;;;5.00;99.90;;;;;;5071963;28;20381;-63
2023/04/08 01:39:04;;;;;;;9.80;8.00;;;4.90;99.90;;;;;;5071094;28;20059;-62
2023/04/08 01:41:33;;;;;;;11.02;8.63;;;4.90;99.90;;;;;;5054245;28;20060;-63
2023/04/08 01:44:01;;;;;;;12.23;8.45;;;4.80;99.90;;;;;;5072022;28;20074;-62
2023/04/08 01:46:29;;;;;;;9.45;8.05;;;4.80;99.90;;;;;;5071719;28;20049;-64
2023/04/08 01:49:04;;;;;;;12.82;9.20;;;4.80;99.90;;;;;;5071013;28;20113;-62
2023/04/08 01:51:30;;;;;;;11.80;9.07;;;4.80;99.90;;;;;;5071513;28;20048;-63
2023/04/08 01:54:01;;;;;;;9.93;8.75;;;4.80;99.90;;;;;;5071805;28;20098;-63
2023/04/08 01:56:38;;;;;;;9.77;8.63;;;4.80;99.90;;;;;;5071676;28;20048;-63
2023/04/08 01:59:14;;;;;;;10.75;8.00;;;4.80;99.90;;;;;;5071228;28;20338;-63
2023/04/08 02:01:43;;;;;;;13.82;9.35;;;4.70;99.90;;;;;;5071622;28;20053;-64
2023/04/08 02:04:13;;;;;;;11.20;8.77;;;4.70;99.90;;;;;;5071694;28;20052;-64
2023/04/08 02:06:40;;;;;;;10.90;8.38;;;4.70;99.90;;;;;;5071458;28;20152;-62
2023/04/08 02:09:07;;;;;;;12.77;9.02;;;4.70;99.90;;;;;;5052619;28;20121;-64
2023/04/08 02:11:33;;;;;;;12.23;9.35;;;4.70;99.90;;;;;;5071407;28;20507;-63
2023/04/08 02:14:00;;;;;;;13.10;9.02;;;4.70;99.90;;;;;;5071594;28;20257;-63
2023/04/08 02:16:39;;;;;;;10.70;7.93;;;4.60;99.90;;;;;;5071546;28;20059;-63
2023/04/08 02:19:12;;;;;;;12.60;8.10;;;4.70;99.90;;;;;;5070881;28;20080;-63
2023/04/08 02:21:45;;;;;;;13.10;9.30;;;4.60;99.90;;;;;;5071668;28;20453;-64
2023/04/08 02:24:17;;;;;;;11.43;8.65;;;4.60;99.90;;;;;;5071644;28;20067;-63
2023/04/08 02:26:51;;;;;;;11.85;7.88;;;4.50;99.90;;;;;;5071544;28;20091;-64
2023/04/08 02:29:18;;;;;;;11.13;7.80;;;4.50;99.90;;;;;;5081912;28;20048;-63
2023/04/08 02:31:45;;;;;;;11.77;9.40;;;4.50;99.90;;;;;;5073463;28;20047;-63
2023/04/08 02:34:14;;;;;;;11.20;8.50;;;4.50;99.90;;;;;;5073875;28;20083;-63
2023/04/08 02:36:41;;;;;;;10.57;8.73;;;4.40;99.90;;;;;;5073888;28;20367;-64
2023/04/08 02:39:08;;;;;;;10.57;8.75;;;4.40;99.90;;;;;;5056172;28;20051;-64
2023/04/08 02:41:35;;;;;;;12.00;9.20;;;4.40;99.90;;;;;;5073618;28;20044;-64
2023/04/08 02:44:01;;;;;;;10.25;8.93;;;4.30;99.90;;;;;;5073753;28;20052;-64
2023/04/08 02:46:28;;;;;;;11.77;9.23;;;4.30;99.90;;;;;;5073539;28;20063;-64
2023/04/08 02:48:55;;;;;;;11.65;9.07;;;4.30;99.90;;;;;;5090467;28;20055;-64
2023/04/08 02:51:21;;;;;;;10.27;7.95;;;4.20;99.90;;;;;;5073573;28;20044;-64
2023/04/08 02:53:54;;;;;;;14.00;8.73;;;4.20;99.90;;;;;;5073576;28;20040;-63
2023/04/08 02:56:20;;;;;;;14.13;9.15;;;4.20;99.90;;;;;;5073309;28;20052;-64
2023/04/08 02:58:54;;;;;;;10.48;8.13;;;4.20;99.90;;;;;;5073583;28;20056;-64
2023/04/08 03:01:26;;;;;;;12.15;9.05;;;4.10;99.90;;;;;;5076971;28;20051;-64
2023/04/08 03:03:52;;;;;;;11.57;8.48;;;4.10;99.90;;;;;;5060443;28;20499;-64
2023/04/08 03:06:20;;;;;;;14.02;9.63;;;4.10;99.90;;;;;;5077148;28;20083;-64
2023/04/08 03:08:47;;;;;;;12.38;9.88;;;4.10;99.90;;;;;;5076351;28;20058;-64
2023/04/08 03:11:13;;;;;;;10.90;8.70;;;4.00;99.90;;;;;;5060237;28;20341;-64
2023/04/08 03:13:39;;;;;;;12.27;9.88;;;4.10;99.90;;;;;;5077125;28;20048;-63
2023/04/08 03:16:06;;;;;;;11.85;9.43;;;4.00;99.90;;;;;;5077106;28;20051;-62
2023/04/08 03:18:33;;;;;;;11.10;8.57;;;3.90;99.90;;;;;;5093887;28;20044;-64
2023/04/08 03:21:00;;;;;;;10.68;8.20;;;3.90;99.90;;;;;;5076315;28;20076;-64
2023/04/08 03:23:28;;;;;;;12.75;9.60;;;3.90;99.90;;;;;;5076911;28;20048;-64
2023/04/08 03:25:54;;;;;;;15.13;10.55;;;3.80;99.90;;;;;;5076676;28;20062;-65
2023/04/08 03:28:20;;;;;;;11.60;8.27;;;3.80;99.90;;;;;;5076594;28;20102;-64
2023/04/08 03:30:53;;;;;;;12.15;8.73;;;3.80;99.90;;;;;;5075266;28;20048;-64
2023/04/08 03:33:20;;;;;;;12.80;9.30;;;3.80;99.90;;;;;;5076765;28;20044;-64
2023/04/08 03:35:47;;;;;;;13.48;10.15;;;3.70;99.90;;;;;;5076241;28;20055;-63
2023/04/08 03:38:13;;;;;;;15.07;10.80;;;3.70;99.90;;;;;;5076736;28;20084;-64
2023/04/08 03:40:40;;;;;;;12.40;10.05;;;3.70;99.90;;;;;;5075935;28;20044;-64
2023/04/08 03:43:07;;;;;;;14.02;10.00;;;3.70;99.90;;;;;;5076973;28;20079;-65
2023/04/08 03:45:34;;;;;;;13.75;10.30;;;3.70;99.90;;;;;;5076540;28;20056;-64
2023/04/08 03:48:06;;;;;;;14.23;9.77;;;3.60;99.90;;;;;;5076446;28;20375;-63
2023/04/08 03:50:33;;;;;;;12.63;9.90;;;3.60;99.90;;;;;;5058875;28;20075;-64
2023/04/08 03:52:59;;;;;;;13.88;10.60;;;3.60;99.90;;;;;;5076166;28;20134;-64
2023/04/08 03:55:26;;;;;;;15.90;10.07;;;3.60;99.90;;;;;;5076438;28;20075;-64
2023/04/08 03:57:58;;;;;;;14.27;10.23;;;3.50;99.90;;;;;;5076072;28;20492;-63
2023/04/08 04:00:24;;;;;;;14.70;9.88;;;3.50;99.90;;;;;;5075032;28;20071;-63
2023/04/08 04:02:52;;;;;;;14.40;10.27;;;3.50;99.90;;;;;;5076119;28;20090;-64
2023/04/08 04:05:23;;;;;;;12.40;9.50;;;3.50;99.90;;;;;;5076073;28;20371;-64
2023/04/08 04:07:49;;;;;;;15.00;11.40;;;3.40;99.90;;;;;;5076183;28;20075;-65
2023/04/08 04:10:15;;;;;;;13.35;9.80;;;3.40;99.90;;;;;;5074361;28;20407;-63
2023/04/08 04:12:43;;;;;;;15.65;11.73;;;3.40;99.90;;;;;;5093331;28;20376;-62
2023/04/08 04:15:11;;;;;;;13.45;10.85;;;3.30;99.90;;;;;;5075599;28;20048;-63
2023/04/08 04:17:38;;;;;;;16.05;10.57;;;3.30;99.90;;;;;;5075521;28;20510;-63
2023/04/08 04:20:05;;;;;;;17.42;10.77;;;3.30;99.90;;;;;;5058259;28;20427;-64
2023/04/08 04:22:31;;;;;;;14.57;10.18;;;3.30;99.90;;;;;;5094005;28;20048;-64
2023/04/08 04:24:59;;;;;;;13.88;9.75;;;3.30;99.90;;;;;;5075354;28;20087;-62
2023/04/08 04:27:27;;;;;;;15.32;12.23;;;3.30;99.90;;;;;;5075570;28;20066;-63
2023/04/08 04:29:55;;;;;;;15.45;11.48;;;3.20;99.90;;;;;;5057730;28;20127;-62
2023/04/08 04:32:21;;;;;;;16.40;11.73;;;3.20;99.90;;;;;;5075375;28;20448;-63
2023/04/08 04:34:47;;;;;;;;;;;3.10;99.90;;;;;;5076054;28;20036;-64
2023/04/08 04:37:15;;;;;;;15.73;12.05;;;3.10;99.90;;;;;;5075503;28;20344;-63
2023/04/08 04:39:41;;;;;;;14.40;11.27;;;3.10;99.90;;;;;;5074141;28;20543;-63
2023/04/08 04:42:09;;;;;;;14.48;11.73;;;3.10;99.90;;;;;;5075069;28;20062;-63
2023/04/08 04:44:35;;;;;;;17.92;10.93;;;3.10;99.90;;;;;;5075658;28;20052;-64
2023/04/08 04:47:02;;;;;;;17.30;12.43;;;3.00;99.90;;;;;;5075228;28;20090;-63
2023/04/08 04:49:28;;;;;;;18.88;12.90;;;3.00;99.90;;;;;;5074284;28;20448;-63
2023/04/08 04:51:55;;;;;;;15.20;11.63;;;3.00;99.90;;;;;;5074932;28;20056;-63
2023/04/08 04:54:21;;;;;;;15.73;11.52;;;3.00;99.90;;;;;;5074859;28;20120;-63
2023/04/08 04:56:47;;;;;;;17.45;11.82;;;3.00;99.90;;;;;;5074761;28;20044;-62
2023/04/08 04:59:14;;;;;;;17.70;11.65;;;3.00;99.90;;;;;;5074108;28;20056;-63
2023/04/08 05:01:40;;;;;;;14.90;11.75;;;3.00;99.90;;;;;;5075241;28;20357;-64
2023/04/08 05:04:07;;;;;;;17.40;11.68;;;3.00;99.90;;;;;;5074831;28;20081;-64
2023/04/08 05:06:36;;;;;;;16.75;12.00;;;3.00;99.90;;;;;;5074858;28;20154;-64
2023/04/08 05:09:02;;;;;;;16.17;11.95;;;3.00;99.90;;;;;;5074754;28;20443;-63
2023/04/08 05:11:29;;;;;;;20.75;12.75;;;2.90;99.90;;;;;;5074464;28;20130;-64
2023/04/08 05:13:55;;;;;;;16.40;13.10;;;3.00;99.90;;;;;;5074690;28;20047;-63
2023/04/08 05:16:21;;;;;;;20.90;13.52;;;2.90;99.90;;;;;;5074378;28;20464;-64
2023/04/08 05:18:50;;;;;;;18.20;12.98;;;2.90;99.90;;;;;;5073953;28;20047;-64
2023/04/08 05:21:16;;;;;;;17.80;11.60;;;2.90;99.90;;;;;;5074347;28;20393;-63
2023/04/08 05:23:42;;;;;;;18.45;12.57;;;2.90;99.90;;;;;;5074685;28;20048;-64
2023/04/08 05:26:09;;;;;;;16.58;12.00;;;2.90;99.90;;;;;;5074765;28;20123;-64
2023/04/08 05:28:42;;;;;;;15.40;11.68;;;3.00;99.90;;;;;;5073607;28;20040;-64
2023/04/08 05:31:15;;;;;;;16.23;12.38;;;3.00;99.90;;;;;;5073690;28;20440;-63
2023/04/08 05:33:42;;;;;;;17.58;13.32;;;3.00;99.90;;;;;;5074545;28;20440;-63
2023/04/08 05:36:10;;;;;;;18.40;12.50;;;3.10;99.90;;;;;;5074410;28;20048;-63
2023/04/08 05:38:37;;;;;;;19.45;13.77;;;3.10;99.90;;;;;;5092382;28;20059;-63
2023/04/08 05:41:03;;;;;;;17.13;12.38;;;3.10;99.90;;;;;;5074133;28;20048;-63
2023/04/08 05:43:32;;;;;;;17.83;12.95;;;3.10;99.90;;;;;;5057636;28;20044;-63
2023/04/08 05:45:58;;;;;;;17.50;11.98;;;3.20;99.90;;;;;;5074185;28;20434;-62
2023/04/08 05:48:31;;;;;;;17.80;12.90;;;3.30;99.90;;;;;;5073875;28;20052;-64
2023/04/08 05:50:58;;;;;;;17.17;12.88;;;3.30;99.90;;;;;;5057338;28;20054;-63
2023/04/08 05:53:25;;;;;;;20.00;13.50;;;3.30;99.90;;;;;;5073977;28;20040;-62
2023/04/08 05:55:51;;;;;;;18.77;12.80;;;3.30;99.90;;;;;;5074000;28;20056;-63
2023/04/08 05:58:21;;;;;;;18.70;13.52;;;3.30;99.90;;;;;;5074059;28;20048;-64
2023/04/08 06:00:47;;;;;;;20.42;12.73;;;3.40;99.90;;;;;;5073562;28;20043;-62
2023/04/08 06:03:14;;;;;;;17.83;12.95;;;3.40;99.90;;;;;;5074483;28;20443;-63
2023/04/08 06:05:48;;;;;;;20.58;14.43;;;3.50;99.90;;;;;;5073980;28;20052;-62
2023/04/08 06:08:14;;;;;;;25.25;13.75;;;3.50;99.90;;;;;;5057537;28;20048;-62
2023/04/08 06:10:52;;;;;;;18.63;12.82;;;3.60;99.90;;;;;;5072686;28;20055;-62
2023/04/08 06:13:20;;;;;;;19.63;12.90;;;4.00;99.90;;;;;;5073711;28;20127;-63
2023/04/08 06:15:50;;;;;;;19.40;13.65;;;4.60;99.90;;;;;;5091742;28;20503;-62
2023/04/08 06:18:16;;;;;;;18.17;13.18;;;4.80;99.90;;;;;;5057137;28;20131;-63
2023/04/08 06:20:44;;;;;;;21.45;16.00;;;4.70;99.90;;;;;;5073407;28;20488;-63
2023/04/08 06:23:17;;;;;;;19.23;13.93;;;4.60;99.90;;;;;;5057308;28;20052;-63
2023/04/08 06:25:43;;;;;;;19.52;13.85;;;4.60;99.90;;;;;;5074107;28;20110;-63
2023/04/08 06:28:10;;;;;;;19.85;14.68;;;4.50;99.90;;;;;;5072934;28;20417;-63
2023/04/08 06:30:36;;;;;;;24.23;15.18;;;4.50;99.90;;;;;;5053152;28;20102;-63
2023/04/08 06:33:06;;;;;;;21.73;15.00;;;4.40;99.90;;;;;;5053789;28;20052;-64
2023/04/08 06:35:32;;;;;;;22.17;14.32;;;4.40;99.90;;;;;;5057541;28;20106;-64
2023/04/08 06:37:58;;;;;;;22.13;14.77;;;4.40;99.90;;;;;;5057840;28;20047;-64
2023/04/08 06:40:25;;;;;;;19.10;13.05;;;4.40;99.90;;;;;;5065353;28;20537;-64
2023/04/08 06:42:52;;;;;;;18.65;14.30;;;4.40;99.90;;;;;;5057517;28;20083;-63
2023/04/08 06:45:20;;;;;;;20.55;13.57;;;4.40;99.90;;;;;;5058037;28;20123;-64
2023/04/08 06:47:46;;;;;;;18.70;12.43;;;4.50;99.90;;;;;;5041380;28;20488;-62
2023/04/08 06:50:13;;;;;;;23.08;15.57;;;4.50;99.90;;;;;;5040721;28;20056;-64
2023/04/08 06:52:40;;;;;;;21.48;13.85;;;4.60;99.90;;;;;;5057843;28;20444;-64
2023/04/08 06:55:07;;;;;;;20.85;13.18;;;4.60;99.90;;;;;;5041095;28;20045;-63
2023/04/08 06:57:33;;;;;;;22.88;15.57;;;4.70;99.90;;;;;;5058179;28;20048;-63
2023/04/08 06:59:59;;;;;;;19.52;14.25;;;4.70;99.90;;;;;;5040859;28;20056;-64
2023/04/08 07:02:26;;;;;;;18.60;13.95;;;4.80;99.90;;;;;;5041190;28;20086;-63
2023/04/08 07:04:52;;;;;;;19.42;14.55;;;4.90;99.90;;;;;;5057915;28;20059;-63
2023/04/08 07:07:18;;;;;;;24.35;14.88;;;5.00;99.90;;;;;;5057139;28;20063;-63
2023/04/08 07:09:46;;;;;;;20.25;13.63;;;5.00;99.90;;;;;;5056327;28;20055;-66
2023/04/08 07:12:12;;;;;;;22.60;13.38;;;5.10;99.90;;;;;;5057078;28;20110;-64
2023/04/08 07:14:38;;;;;;;25.30;15.35;;;5.20;99.90;;;;;;5057373;28;20090;-63
2023/04/08 07:17:05;;;;;;;27.98;17.13;;;5.30;99.90;;;;;;5057315;28;20113;-63
2023/04/08 07:19:31;;;;;;;24.83;15.15;;;5.40;99.90;;;;;;5052632;28;20501;-64
2023/04/08 07:22:05;;;;;;;23.20;16.55;;;5.60;99.90;;;;;;5055780;28;20080;-64
2023/04/08 07:24:37;;;;;;;22.92;14.95;;;5.70;99.90;;;;;;5055379;28;20048;-63
2023/04/08 07:27:04;;;;;;;27.52;18.17;;;5.80;99.90;;;;;;5056087;28;20140;-63
2023/04/08 07:29:36;;;;;;;23.58;15.02;;;5.80;99.90;;;;;;5066514;28;20349;-64
2023/04/08 07:32:11;;;;;;;26.65;17.05;;;5.90;99.90;;;;;;5073880;28;20054;-63
2023/04/08 07:34:38;;;;;;;23.70;16.10;;;5.90;99.90;;;;;;5091383;28;20044;-64
2023/04/08 07:37:11;;;;;;;23.38;15.57;;;6.00;99.90;;;;;;5093592;28;20044;-64
2023/04/08 07:39:39;;;;;;;25.00;16.63;;;6.10;99.90;;;;;;5089107;28;20091;-64
2023/04/08 07:42:05;;;;;;;22.05;14.88;;;6.20;99.90;;;;;;5093378;28;20058;-64
2023/04/08 07:44:32;;;;;;;23.55;16.40;;;6.30;99.90;;;;;;5075526;28;20067;-64
2023/04/08 07:46:58;;;;;;;24.95;16.35;;;6.40;99.90;;;;;;5093600;28;20044;-64
2023/04/08 07:49:24;;;;;;;25.30;16.42;;;6.40;99.90;;;;;;5093293;28;20467;-64
2023/04/08 07:51:51;;;;;;;24.92;17.25;;;6.60;99.90;;;;;;5094265;28;20108;-64
2023/04/08 07:54:18;;;;;;;28.00;17.50;;;6.60;99.90;;;;;;5076119;28;20105;-64
2023/04/08 07:56:44;;;;;;;25.25;17.50;;;6.60;99.90;;;;;;5076274;28;20461;-63
2023/04/08 07:59:11;;;;;;;24.38;15.18;;;6.60;99.90;;;;;;5093285;28;20071;-64
2023/04/08 08:01:38;;;;;;;24.23;15.40;;;6.60;99.90;;;;;;5093811;28;20036;-63
2023/04/08 08:04:05;;;;;;;27.25;16.75;;;6.70;99.90;;;;;;5094103;28;20051;-63
2023/04/08 08:06:31;;;;;;;28.17;17.60;;;6.70;99.90;;;;;;5076693;28;20091;-64
2023/04/08 08:08:58;;;;;;;25.50;17.08;;;6.70;99.90;;;;;;5093897;28;20056;-64
2023/04/08 08:11:27;;;;;;;25.35;16.80;;;6.80;99.90;;;;;;5093083;28;20226;-63
2023/04/08 08:13:54;;;;;;;27.15;17.65;;;6.80;99.90;;;;;;5076178;28;20048;-62
2023/04/08 08:16:28;;;;;;;26.15;17.45;;;6.90;99.90;;;;;;5094148;28;20119;-63
2023/04/08 08:18:54;;;;;;;25.40;16.52;;;7.00;99.90;;;;;;5093498;28;20079;-63
2023/04/08 08:21:21;;;;;;;25.52;16.67;;;7.20;99.90;;;;;;5075374;28;20048;-63
2023/04/08 08:23:47;;;;;;;25.08;15.75;;;7.30;99.90;;;;;;5094046;28;20074;-63
2023/04/08 08:26:23;;;;;;;25.10;16.58;;;7.50;99.90;;;;;;5076180;28;20394;-63
2023/04/08 08:28:56;;;;;;;25.73;16.77;;;7.60;99.90;;;;;;5092916;28;20044;-63
2023/04/08 08:31:23;;;;;;;24.85;16.35;;;7.80;99.90;;;;;;5093053;28;20048;-63
2023/04/08 08:33:49;;;;;;;26.35;16.30;;;7.80;99.90;;;;;;5075473;28;20044;-62
2023/04/08 08:36:16;;;;;;;24.42;14.60;;;7.90;99.90;;;;;;5093631;28;20410;-62
2023/04/08 08:38:43;;;;;;;21.88;15.68;;;8.10;99.90;;;;;;5074953;28;20044;-65
2023/04/08 08:41:09;;;;;;;22.65;15.50;;;8.50;99.90;;;;;;5092509;28;20487;-63
2023/04/08 08:43:37;;;;;;;21.25;14.55;;;8.70;99.90;;;;;;5089364;28;20456;-63
2023/04/08 08:46:03;;;;;;;26.25;14.73;;;8.90;99.90;;;;;;5092906;28;20055;-62
2023/04/08 08:48:31;;;;;;;23.83;15.55;;;9.10;99.90;;;;;;5092983;28;20062;-63
2023/04/08 08:50:57;;;;;;;21.80;14.93;;;9.20;99.90;;;;;;5074702;28;20071;-63
2023/04/08 08:53:30;;;;;;;21.88;15.02;;;9.20;99.90;;;;;;5093021;28;20051;-63
2023/04/08 08:56:05;;;;;;;19.63;14.75;;;9.10;99.90;;;;;;5093265;28;20141;-64
2023/04/08 08:58:35;;;;;;;21.33;15.35;;;9.10;99.90;;;;;;5092496;28;20075;-62
2023/04/08 09:01:01;;;;;;;22.88;14.20;;;9.10;99.90;;;;;;5092126;28;20376;-63
2023/04/08 09:03:27;;;;;;;22.15;14.90;;;9.10;99.90;;;;;;5074494;28;20108;-64
2023/04/08 09:05:58;;;;;;;22.25;15.93;;;9.20;99.90;;;;;;5075377;28;20070;-62
2023/04/08 09:08:31;;;;;;;21.17;14.57;;;9.30;99.90;;;;;;5092701;28;20060;-62
2023/04/08 09:11:15;;;;;;;20.13;14.32;;;9.40;99.90;;;;;;5074257;28;20080;-63
2023/04/08 09:13:42;;;;;;;20.02;13.80;;;9.40;99.90;;;;;;5089326;28;20121;-62
2023/04/08 09:16:11;;;;;;;19.83;12.95;;;9.60;99.90;;;;;;5074382;28;20044;-63
2023/04/08 09:18:39;;;;;;;18.27;12.43;;;9.60;99.90;;;;;;5073181;28;20308;-63
2023/04/08 09:21:11;;;;;;;18.70;12.70;;;9.80;99.90;;;;;;5057206;28;20040;-63
2023/04/08 09:23:42;;;;;;;16.85;13.43;;;9.80;99.90;;;;;;5089913;28;20094;-62
2023/04/08 09:26:10;;;;;;;18.17;11.50;;;9.80;99.90;;;;;;5074591;28;20459;-63
2023/04/08 09:28:37;;;;;;;18.27;13.68;;;10.00;99.90;;;;;;5091592;28;20052;-63
2023/04/08 09:31:28;;;;;;;18.20;12.82;;;10.10;99.90;;;;;;5073983;28;20483;-63
2023/04/08 09:34:01;;;;;;;17.40;11.43;;;10.30;99.90;;;;;;5075216;28;20467;-64
2023/04/08 09:36:27;;;;;;;18.13;12.52;;;10.40;99.90;;;;;;5092449;28;20106;-63
2023/04/08 09:38:55;;;;;;;17.48;14.45;;;10.60;99.90;;;;;;5073905;28;20050;-60
2023/04/08 09:41:23;;;;;;;16.48;11.65;;;10.60;99.90;;;;;;5074058;28;20076;-62
2023/04/08 09:43:57;;;;;;;17.88;12.88;;;10.70;99.90;;;;;;5074293;28;20090;-63
2023/04/08 09:46:34;;;;;;;16.52;11.50;;;10.70;99.90;;;;;;5074007;28;20044;-62
2023/04/08 09:49:26;;;;;;;17.30;12.23;;;10.80;99.90;;;;;;5070778;28;20087;-62
2023/04/08 09:52:06;;;;;;;17.05;12.88;;;10.70;99.90;;;;;;5092216;28;20048;-62
2023/04/08 09:55:00;;;;;;;19.27;12.70;;;10.90;99.90;;;;;;5073591;28;20036;-63
2023/04/08 09:57:45;;;;;;;15.95;11.73;;;11.00;99.90;;;;;;5073785;28;20473;-62
2023/04/08 10:00:18;;;;;;;17.45;12.50;;;10.90;99.90;;;;;;5053716;28;20075;-61
2023/04/08 10:03:15;;;;;;;18.23;12.70;;;10.90;99.90;;;;;;5073719;28;20405;-63
2023/04/08 10:05:47;;;;;;;16.30;11.98;;;11.00;99.90;;;;;;5071083;28;20373;-63
2023/04/08 10:08:14;;;;;;;19.50;13.02;;;11.10;99.90;;;;;;5072065;28;20093;-63
2023/04/08 10:10:42;;;;;;;19.45;13.38;;;11.20;99.90;;;;;;5091112;28;20076;-63
2023/04/08 10:13:08;;;;;;;18.73;12.95;;;11.40;99.90;;;;;;5091277;28;20036;-63
2023/04/08 10:15:37;;;;;;;19.23;13.23;;;11.40;99.90;;;;;;5089173;28;20356;-63
2023/04/08 10:18:12;;;;;;;21.98;14.05;;;11.50;99.90;;;;;;5071665;28;20121;-61
2023/04/08 10:20:38;;;;;;;20.73;14.20;;;11.50;99.90;;;;;;5089844;28;20419;-62
2023/04/08 10:23:11;;;;;;;19.23;13.25;;;11.40;99.90;;;;;;5073740;28;20102;-63
2023/04/08 10:25:40;;;;;;;19.52;13.65;;;11.50;99.90;;;;;;5071518;28;20048;-63
2023/04/08 10:28:22;;;;;;;20.63;14.23;;;11.50;99.90;;;;;;5065920;28;20044;-63
2023/04/08 10:30:54;;;;;;;20.33;15.13;;;11.70;99.90;;;;;;5050819;28;20430;-63
2023/04/08 10:33:33;;;;;;;20.38;14.65;;;11.70;99.90;;;;;;5053368;28;20063;-62
2023/04/08 10:36:10;;;;;;;19.88;14.15;;;11.90;99.90;;;;;;5051354;28;20151;-63
2023/04/08 10:38:43;;;;;;;18.80;15.13;;;11.80;99.90;;;;;;5052480;28;20044;-64
2023/04/08 10:41:23;;;;;;;17.92;14.13;;;12.00;99.90;;;;;;5038925;28;20041;-63
2023/04/08 10:43:49;;;;;;;19.60;14.18;;;12.10;99.90;;;;;;5077845;28;20052;-63
2023/04/08 10:46:19;;;;;;;18.42;14.07;;;12.20;99.90;;;;;;5073732;28;20480;-63
2023/04/08 10:48:59;;;;;;;18.90;14.30;;;12.40;99.90;;;;;;5091254;28;20052;-63
2023/04/08 10:51:30;;;;;;;19.63;13.25;;;12.50;99.90;;;;;;5054678;28;20051;-63
2023/04/08 10:54:11;;;;;;;17.13;13.65;;;12.60;99.90;;;;;;5082173;28;20194;-63
2023/04/08 10:56:48;;;;;;;16.75;12.77;;;12.50;99.90;;;;;;5085291;28;20054;-63
2023/04/08 10:59:19;;;;;;;16.77;11.93;;;12.50;99.90;;;;;;5070680;28;20052;-63
2023/04/08 11:01:52;;;;;;;14.75;12.32;;;12.50;99.90;;;;;;5030422;28;20448;-62
2023/04/08 11:04:18;;;;;;;16.73;13.27;;;12.50;99.90;;;;;;5088244;28;20059;-62
2023/04/08 11:06:51;;;;;;;17.30;12.57;;;12.40;99.90;;;;;;5060268;28;20080;-63
2023/04/08 11:09:17;;;;;;;16.35;13.65;;;12.40;99.90;;;;;;5085276;28;20048;-63
2023/04/08 11:11:52;;;;;;;13.80;11.13;;;12.40;99.90;;;;;;5056440;28;20098;-63
2023/04/08 11:14:20;;;;;;;14.70;11.43;;;12.30;99.90;;;;;;5056155;28;20406;-63
2023/04/08 11:16:50;;;;;;;15.65;11.95;;;12.10;99.90;;;;;;5073407;28;20048;-64
2023/04/08 11:19:17;;;;;;;14.65;12.05;;;12.00;99.90;;;;;;5054080;28;20415;-62
2023/04/08 11:21:44;;;;;;;14.10;12.07;;;11.90;99.90;;;;;;5066768;28;20047;-64
2023/04/08 11:24:12;;;;;;;15.40;11.38;;;12.00;99.90;;;;;;5073853;28;20486;-62
2023/04/08 11:26:39;;;;;;;15.55;11.50;;;12.10;99.90;;;;;;5076888;28;20083;-63
2023/04/08 11:29:11;;;;;;;14.48;11.95;;;12.20;99.90;;;;;;5085352;28;20079;-62
2023/04/08 11:31:37;;;;;;;16.88;12.70;;;12.20;99.90;;;;;;5094301;28;20052;-62
2023/04/08 11:34:03;;;;;;;18.63;12.85;;;12.40;99.90;;;;;;5076866;28;20486;-63
2023/04/08 11:36:30;;;;;;;14.65;12.02;;;12.40;99.90;;;;;;5094359;28;20083;-64
2023/04/08 11:38:56;;;;;;;15.20;11.13;;;12.30;99.90;;;;;;5093698;28;20133;-63
2023/04/08 11:41:29;;;;;;;16.63;12.23;;;12.30;99.90;;;;;;5091880;28;20040;-62
2023/04/08 11:44:02;;;;;;;15.00;11.82;;;12.40;99.90;;;;;;5093693;28;20044;-62
2023/04/08 11:56:32;;;;;;;15.95;12.00;;;12.80;99.90;;;;;;5090788;28;20107;-62
2023/04/08 11:58:59;;;;;;;17.70;12.07;;;12.80;99.90;;;;;;5093369;28;20051;-62
2023/04/08 12:07:52;;;;;;;13.00;10.93;;;13.10;99.90;;;;;;5499668;22;20049;-64
2023/04/08 12:10:19;;;;;;;14.55;11.77;;;13.30;99.90;;;;;;5048010;28;20041;-64
2023/04/08 12:12:45;;;;;;;14.63;11.20;;;13.30;99.90;;;;;;5045103;28;20053;-64
2023/04/08 12:15:12;;;;;;;14.38;11.45;;;13.40;99.90;;;;;;5010348;28;20115;-65
2023/04/08 12:17:38;;;;;;;13.50;11.65;;;13.60;99.90;;;;;;5010722;28;20052;-64
2023/04/08 12:20:05;;;;;;;14.50;11.40;;;13.70;99.90;;;;;;5051902;28;20048;-65
2023/04/08 12:22:32;;;;;;;14.38;11.25;;;13.70;99.90;;;;;;5028671;28;20051;-65
2023/04/08 12:24:58;;;;;;;14.38;11.38;;;13.60;99.90;;;;;;5026362;28;20511;-64
2023/04/08 12:27:32;;;;;;;13.57;11.40;;;13.70;99.90;;;;;;5010089;28;20146;-65
2023/04/08 12:29:59;;;;;;;15.43;12.20;;;13.70;99.90;;;;;;5046942;28;20091;-64
2023/04/08 12:32:27;;;;;;;14.68;11.80;;;13.80;99.90;;;;;;5043805;28;20476;-64
2023/04/08 12:34:57;;;;;;;15.10;11.77;;;13.90;99.90;;;;;;5028429;28;20045;-65
2023/04/08 12:37:23;;;;;;;15.43;11.95;;;13.90;99.90;;;;;;5025502;28;20077;-65
2023/04/08 12:39:50;;;;;;;15.73;13.02;;;13.80;99.90;;;;;;5025147;28;20068;-64
2023/04/08 12:42:16;;;;;;;15.63;13.93;;;13.80;99.90;;;;;;5028000;28;20428;-65
2023/04/08 12:44:44;;;;;;;15.40;12.57;;;13.60;99.90;;;;;;5046534;28;20091;-65
2023/04/08 12:47:17;;;;;;;16.20;12.88;;;13.60;99.90;;;;;;5008439;28;20072;-65
2023/04/08 12:49:46;;;;;;;15.88;12.65;;;13.70;99.90;;;;;;5043251;28;20057;-65
2023/04/08 12:52:13;;;;;;;15.13;12.32;;;13.70;99.90;;;;;;5025402;28;20053;-65
2023/04/08 12:54:39;;;;;;;14.00;12.18;;;13.80;99.90;;;;;;5044570;28;20099;-64
2023/04/08 12:57:08;;;;;;;14.25;11.75;;;13.90;99.90;;;;;;5043845;28;20099;-64
2023/04/08 12:59:34;;;;;;;13.65;12.05;;;13.90;99.90;;;;;;5011132;28;20384;-66
2023/04/08 13:02:00;;;;;;;14.60;12.77;;;13.80;99.90;;;;;;5026840;28;20051;-65
2023/04/08 13:04:30;;;;;;;13.82;11.48;;;13.80;99.90;;;;;;5026831;28;20049;-64